sensor_id;sensor_type;location;lat;lon;timestamp;P1;durP1;ratioP1;P2;durP2;ratioP2
44842;SDS011;31884;52.538;13.820;2024-03-23T00:55:57;12.55;;;2.08;;
44842;SDS011;31884;52.538;13.820;2024-03-23T00:58:22;8.27;;;2.13;;
44842;SDS011;31884;52.538;13.820;2024-03-23T01:00:48;4.90;;;1.60;;
44842;SDS011;31884;52.538;13.820;2024-03-23T01:03:13;5.63;;;2.03;;
44842;SDS011;31884;52.538;13.820;2024-03-23T01:05:39;9.98;;;2.00;;
44842;SDS011;31884;52.538;13.820;2024-03-23T01:08:04;5.82;;;2.13;;
44842;SDS011;31884;52.538;13.820;2024-03-23T01:10:30;10.05;;;2.10;;
44842;SDS011;31884;52.538;13.820;2024-03-23T01:12:55;11.65;;;2.78;;
44842;SDS011;31884;52.538;13.820;2024-03-23T01:15:21;7.82;;;2.25;;
44842;SDS011;31884;52.538;13.820;2024-03-23T01:17:46;10.35;;;1.95;;
44842;SDS011;31884;52.538;13.820;2024-03-23T01:20:12;14.98;;;2.00;;
44842;SDS011;31884;52.538;13.820;2024-03-23T01:22:37;7.45;;;2.08;;
44842;SDS011;31884;52.538;13.820;2024-03-23T01:25:03;11.30;;;2.13;;
44842;SDS011;31884;52.538;13.820;2024-03-23T01:27:29;13.55;;;2.10;;
44842;SDS011;31884;52.538;13.820;2024-03-23T01:29:54;9.98;;;2.38;;
44842;SDS011;31884;52.538;13.820;2024-03-23T01:32:19;9.98;;;2.00;;
44842;SDS011;31884;52.538;13.820;2024-03-23T01:34:45;9.38;;;1.95;;
44842;SDS011;31884;52.538;13.820;2024-03-23T01:37:10;8.55;;;1.83;;
44842;SDS011;31884;52.538;13.820;2024-03-23T01:39:36;9.38;;;2.00;;
44842;SDS011;31884;52.538;13.820;2024-03-23T01:42:02;9.77;;;2.47;;
44842;SDS011;31884;52.538;13.820;2024-03-23T01:44:27;13.13;;;2.72;;
44842;SDS011;31884;52.538;13.820;2024-03-23T01:46:53;11.48;;;2.20;;
44842;SDS011;31884;52.538;13.820;2024-03-23T01:49:18;8.93;;;2.00;;
44842;SDS011;31884;52.538;13.820;2024-03-23T01:51:45;5.57;;;1.85;;
44842;SDS011;31884;52.538;13.820;2024-03-23T01:54:10;10.02;;;2.10;;
44842;SDS011;31884;52.538;13.820;2024-03-23T01:56:36;14.95;;;2.55;;
44842;SDS011;31884;52.538;13.820;2024-03-23T01:59:02;12.50;;;2.25;;
44842;SDS011;31884;52.538;13.820;2024-03-23T02:01:31;11.65;;;2.58;;
44842;SDS011;31884;52.538;13.820;2024-03-23T02:03:57;13.43;;;2.22;;
44842;SDS011;31884;52.538;13.820;2024-03-23T02:06:26;8.02;;;1.98;;
44842;SDS011;31884;52.538;13.820;2024-03-23T02:08:52;6.72;;;1.65;;
44842;SDS011;31884;52.538;13.820;2024-03-23T02:11:18;8.93;;;1.63;;
44842;SDS011;31884;52.538;13.820;2024-03-23T02:13:44;13.73;;;2.45;;
44842;SDS011;31884;52.538;13.820;2024-03-23T02:16:09;8.63;;;1.83;;
44842;SDS011;31884;52.538;13.820;2024-03-23T02:18:35;5.72;;;2.03;;
44842;SDS011;31884;52.538;13.820;2024-03-23T02:21:01;7.55;;;1.90;;
44842;SDS011;31884;52.538;13.820;2024-03-23T02:23:26;9.68;;;2.53;;
44842;SDS011;31884;52.538;13.820;2024-03-23T02:25:52;8.63;;;1.65;;
44842;SDS011;31884;52.538;13.820;2024-03-23T02:28:20;8.48;;;1.80;;
44842;SDS011;31884;52.538;13.820;2024-03-23T02:30:47;7.78;;;2.33;;
44842;SDS011;31884;52.538;13.820;2024-03-23T02:33:13;8.90;;;1.95;;
44842;SDS011;31884;52.538;13.820;2024-03-23T02:35:39;12.32;;;2.47;;
44842;SDS011;31884;52.538;13.820;2024-03-23T02:38:04;8.20;;;1.85;;
44842;SDS011;31884;52.538;13.820;2024-03-23T02:40:30;4.57;;;1.77;;
44842;SDS011;31884;52.538;13.820;2024-03-23T02:42:55;9.38;;;2.08;;
44842;SDS011;31884;52.538;13.820;2024-03-23T02:45:21;10.43;;;2.22;;
44842;SDS011;31884;52.538;13.820;2024-03-23T02:47:46;4.47;;;1.77;;
44842;SDS011;31884;52.538;13.820;2024-03-23T02:50:12;12.93;;;2.42;;
44842;SDS011;31884;52.538;13.820;2024-03-23T02:52:38;8.10;;;2.60;;
44842;SDS011;31884;52.538;13.820;2024-03-23T02:55:03;3.95;;;1.77;;
44842;SDS011;31884;52.538;13.820;2024-03-23T02:57:30;12.80;;;2.03;;
44842;SDS011;31884;52.538;13.820;2024-03-23T02:59:55;9.95;;;2.13;;
44842;SDS011;31884;52.538;13.820;2024-03-23T03:02:21;9.88;;;1.80;;
44842;SDS011;31884;52.538;13.820;2024-03-23T03:04:47;10.13;;;2.42;;
44842;SDS011;31884;52.538;13.820;2024-03-23T03:07:12;10.48;;;2.00;;
44842;SDS011;31884;52.538;13.820;2024-03-23T03:09:38;9.10;;;2.03;;
44842;SDS011;31884;52.538;13.820;2024-03-23T03:12:07;9.15;;;2.40;;
44842;SDS011;31884;52.538;13.820;2024-03-23T03:14:33;4.25;;;1.80;;
44842;SDS011;31884;52.538;13.820;2024-03-23T03:16:58;6.63;;;1.83;;
44842;SDS011;31884;52.538;13.820;2024-03-23T03:19:24;12.00;;;2.35;;
44842;SDS011;31884;52.538;13.820;2024-03-23T03:21:49;8.18;;;1.83;;
44842;SDS011;31884;52.538;13.820;2024-03-23T03:24:15;12.70;;;2.40;;
44842;SDS011;31884;52.538;13.820;2024-03-23T03:26:40;11.45;;;2.40;;
44842;SDS011;31884;52.538;13.820;2024-03-23T03:29:06;6.40;;;2.03;;
44842;SDS011;31884;52.538;13.820;2024-03-23T03:31:31;12.55;;;2.30;;
44842;SDS011;31884;52.538;13.820;2024-03-23T03:33:57;8.85;;;2.50;;
44842;SDS011;31884;52.538;13.820;2024-03-23T03:36:22;10.05;;;1.80;;
44842;SDS011;31884;52.538;13.820;2024-03-23T03:38:48;6.63;;;2.00;;
44842;SDS011;31884;52.538;13.820;2024-03-23T03:41:13;11.88;;;2.15;;
44842;SDS011;31884;52.538;13.820;2024-03-23T03:43:39;6.85;;;1.80;;
44842;SDS011;31884;52.538;13.820;2024-03-23T03:46:04;12.63;;;2.55;;
44842;SDS011;31884;52.538;13.820;2024-03-23T03:48:32;3.30;;;1.88;;
44842;SDS011;31884;52.538;13.820;2024-03-23T03:50:58;11.95;;;2.17;;
44842;SDS011;31884;52.538;13.820;2024-03-23T03:53:23;12.55;;;2.58;;
44842;SDS011;31884;52.538;13.820;2024-03-23T03:55:49;8.57;;;1.98;;
44842;SDS011;31884;52.538;13.820;2024-03-23T03:58:14;12.48;;;2.65;;
44842;SDS011;31884;52.538;13.820;2024-03-23T04:00:40;11.65;;;2.85;;
44842;SDS011;31884;52.538;13.820;2024-03-23T04:03:06;14.98;;;2.17;;
44842;SDS011;31884;52.538;13.820;2024-03-23T04:05:31;12.63;;;2.42;;
44842;SDS011;31884;52.538;13.820;2024-03-23T04:07:57;11.98;;;2.17;;
44842;SDS011;31884;52.538;13.820;2024-03-23T04:10:23;8.48;;;2.00;;
44842;SDS011;31884;52.538;13.820;2024-03-23T04:12:48;9.57;;;2.80;;
44842;SDS011;31884;52.538;13.820;2024-03-23T04:15:14;12.57;;;2.70;;
44842;SDS011;31884;52.538;13.820;2024-03-23T04:17:39;10.82;;;2.20;;
44842;SDS011;31884;52.538;13.820;2024-03-23T04:20:07;8.88;;;2.60;;
44842;SDS011;31884;52.538;13.820;2024-03-23T04:22:36;9.10;;;1.90;;
44842;SDS011;31884;52.538;13.820;2024-03-23T04:25:02;8.00;;;2.10;;
44842;SDS011;31884;52.538;13.820;2024-03-23T04:27:35;14.90;;;2.20;;
44842;SDS011;31884;52.538;13.820;2024-03-23T04:30:05;8.85;;;2.35;;
44842;SDS011;31884;52.538;13.820;2024-03-23T04:32:35;13.30;;;3.33;;
44842;SDS011;31884;52.538;13.820;2024-03-23T04:35:01;7.95;;;1.90;;
44842;SDS011;31884;52.538;13.820;2024-03-23T04:37:28;12.77;;;2.42;;
44842;SDS011;31884;52.538;13.820;2024-03-23T04:39:53;10.20;;;2.53;;
44842;SDS011;31884;52.538;13.820;2024-03-23T04:42:19;15.25;;;3.03;;
44842;SDS011;31884;52.538;13.820;2024-03-23T04:44:44;11.32;;;3.22;;
44842;SDS011;31884;52.538;13.820;2024-03-23T04:47:10;15.40;;;3.85;;
44842;SDS011;31884;52.538;13.820;2024-03-23T04:49:36;11.18;;;3.42;;
44842;SDS011;31884;52.538;13.820;2024-03-23T04:52:02;17.83;;;3.42;;
44842;SDS011;31884;52.538;13.820;2024-03-23T04:54:29;12.88;;;3.42;;
44842;SDS011;31884;52.538;13.820;2024-03-23T04:56:54;13.77;;;3.17;;
44842;SDS011;31884;52.538;13.820;2024-03-23T04:59:20;12.52;;;3.17;;
44842;SDS011;31884;52.538;13.820;2024-03-23T05:01:45;12.52;;;2.90;;
44842;SDS011;31884;52.538;13.820;2024-03-23T05:04:11;9.00;;;2.75;;
44842;SDS011;31884;52.538;13.820;2024-03-23T05:06:36;13.63;;;2.72;;
44842;SDS011;31884;52.538;13.820;2024-03-23T05:09:02;9.68;;;2.88;;
44842;SDS011;31884;52.538;13.820;2024-03-23T05:11:32;13.30;;;2.42;;
44842;SDS011;31884;52.538;13.820;2024-03-23T05:13:58;12.65;;;2.42;;
44842;SDS011;31884;52.538;13.820;2024-03-23T05:16:24;10.93;;;2.35;;
44842;SDS011;31884;52.538;13.820;2024-03-23T05:18:51;10.77;;;3.53;;
44842;SDS011;31884;52.538;13.820;2024-03-23T05:21:16;7.57;;;2.22;;
44842;SDS011;31884;52.538;13.820;2024-03-23T05:23:42;10.85;;;2.15;;
44842;SDS011;31884;52.538;13.820;2024-03-23T05:26:08;11.43;;;2.13;;
44842;SDS011;31884;52.538;13.820;2024-03-23T05:28:34;7.88;;;2.25;;
44842;SDS011;31884;52.538;13.820;2024-03-23T05:31:00;7.47;;;1.58;;
44842;SDS011;31884;52.538;13.820;2024-03-23T05:33:25;8.38;;;2.20;;
44842;SDS011;31884;52.538;13.820;2024-03-23T05:35:57;5.18;;;1.80;;
44842;SDS011;31884;52.538;13.820;2024-03-23T05:38:23;4.38;;;1.58;;
44842;SDS011;31884;52.538;13.820;2024-03-23T05:40:53;7.15;;;2.60;;
44842;SDS011;31884;52.538;13.820;2024-03-23T05:43:22;11.70;;;2.67;;
44842;SDS011;31884;52.538;13.820;2024-03-23T05:45:56;7.65;;;2.00;;
44842;SDS011;31884;52.538;13.820;2024-03-23T05:48:23;4.38;;;1.70;;
44842;SDS011;31884;52.538;13.820;2024-03-23T05:50:50;7.45;;;1.88;;
44842;SDS011;31884;52.538;13.820;2024-03-23T05:53:16;5.68;;;1.60;;
44842;SDS011;31884;52.538;13.820;2024-03-23T05:55:41;4.20;;;1.77;;
44842;SDS011;31884;52.538;13.820;2024-03-23T05:58:07;8.88;;;1.90;;
44842;SDS011;31884;52.538;13.820;2024-03-23T06:00:33;7.78;;;1.83;;
44842;SDS011;31884;52.538;13.820;2024-03-23T06:02:58;8.20;;;2.03;;
44842;SDS011;31884;52.538;13.820;2024-03-23T06:05:24;6.57;;;1.77;;
44842;SDS011;31884;52.538;13.820;2024-03-23T06:07:49;7.10;;;2.00;;
44842;SDS011;31884;52.538;13.820;2024-03-23T06:10:15;7.20;;;2.30;;
44842;SDS011;31884;52.538;13.820;2024-03-23T06:12:40;3.25;;;1.65;;
44842;SDS011;31884;52.538;13.820;2024-03-23T06:15:06;7.28;;;1.80;;
44842;SDS011;31884;52.538;13.820;2024-03-23T06:17:35;5.22;;;1.60;;
44842;SDS011;31884;52.538;13.820;2024-03-23T06:20:01;5.38;;;1.55;;
44842;SDS011;31884;52.538;13.820;2024-03-23T06:22:26;8.55;;;1.60;;
44842;SDS011;31884;52.538;13.820;2024-03-23T06:24:52;8.02;;;2.08;;
44842;SDS011;31884;52.538;13.820;2024-03-23T06:27:17;8.27;;;1.80;;
44842;SDS011;31884;52.538;13.820;2024-03-23T06:29:43;9.35;;;2.55;;
44842;SDS011;31884;52.538;13.820;2024-03-23T06:32:09;9.82;;;2.95;;
44842;SDS011;31884;52.538;13.820;2024-03-23T06:34:34;12.65;;;2.67;;
44842;SDS011;31884;52.538;13.820;2024-03-23T06:37:00;6.90;;;2.47;;
44842;SDS011;31884;52.538;13.820;2024-03-23T06:39:26;6.28;;;2.15;;
44842;SDS011;31884;52.538;13.820;2024-03-23T06:41:52;7.30;;;2.60;;
44842;SDS011;31884;52.538;13.820;2024-03-23T06:44:18;5.35;;;1.98;;
44842;SDS011;31884;52.538;13.820;2024-03-23T06:46:44;5.43;;;2.15;;
44842;SDS011;31884;52.538;13.820;2024-03-23T06:49:10;6.38;;;2.10;;
44842;SDS011;31884;52.538;13.820;2024-03-23T06:51:36;5.65;;;1.98;;
44842;SDS011;31884;52.538;13.820;2024-03-23T06:54:02;5.63;;;1.88;;
44842;SDS011;31884;52.538;13.820;2024-03-23T06:56:29;11.70;;;3.50;;
44842;SDS011;31884;52.538;13.820;2024-03-23T06:58:54;4.75;;;2.45;;
44842;SDS011;31884;52.538;13.820;2024-03-23T07:01:21;6.63;;;2.30;;
44842;SDS011;31884;52.538;13.820;2024-03-23T07:03:46;6.10;;;1.85;;
44842;SDS011;31884;52.538;13.820;2024-03-23T07:06:12;6.72;;;1.75;;
44842;SDS011;31884;52.538;13.820;2024-03-23T07:08:37;8.13;;;2.10;;
44842;SDS011;31884;52.538;13.820;2024-03-23T07:11:03;4.50;;;1.63;;
44842;SDS011;31884;52.538;13.820;2024-03-23T07:13:29;7.22;;;2.22;;
44842;SDS011;31884;52.538;13.820;2024-03-23T07:15:55;5.88;;;2.00;;
44842;SDS011;31884;52.538;13.820;2024-03-23T07:18:22;3.95;;;1.40;;
44842;SDS011;31884;52.538;13.820;2024-03-23T07:20:54;5.75;;;2.08;;
44842;SDS011;31884;52.538;13.820;2024-03-23T07:23:24;7.68;;;2.08;;
44842;SDS011;31884;52.538;13.820;2024-03-23T07:25:59;5.57;;;2.42;;
44842;SDS011;31884;52.538;13.820;2024-03-23T07:28:26;8.65;;;2.25;;
44842;SDS011;31884;52.538;13.820;2024-03-23T07:31:06;7.72;;;1.85;;
44842;SDS011;31884;52.538;13.820;2024-03-23T07:33:36;10.32;;;2.05;;
44842;SDS011;31884;52.538;13.820;2024-03-23T07:36:07;5.63;;;2.10;;
44842;SDS011;31884;52.538;13.820;2024-03-23T07:38:33;5.53;;;1.80;;
44842;SDS011;31884;52.538;13.820;2024-03-23T07:41:08;7.50;;;2.40;;
44842;SDS011;31884;52.538;13.820;2024-03-23T07:43:35;5.68;;;2.05;;
44842;SDS011;31884;52.538;13.820;2024-03-23T07:46:02;6.10;;;2.45;;
44842;SDS011;31884;52.538;13.820;2024-03-23T07:48:30;3.15;;;1.73;;
44842;SDS011;31884;52.538;13.820;2024-03-23T07:53:29;7.07;;;2.17;;
44842;SDS011;31884;52.538;13.820;2024-03-23T07:55:56;5.93;;;1.80;;
44842;SDS011;31884;52.538;13.820;2024-03-23T07:58:23;4.50;;;1.70;;
44842;SDS011;31884;52.538;13.820;2024-03-23T08:00:49;3.90;;;1.98;;
44842;SDS011;31884;52.538;13.820;2024-03-23T08:03:15;5.35;;;1.92;;
44842;SDS011;31884;52.538;13.820;2024-03-23T08:05:40;6.93;;;1.85;;
44842;SDS011;31884;52.538;13.820;2024-03-23T08:08:06;6.95;;;2.30;;
44842;SDS011;31884;52.538;13.820;2024-03-23T08:10:32;4.82;;;1.80;;
44842;SDS011;31884;52.538;13.820;2024-03-23T08:12:57;5.60;;;2.00;;
44842;SDS011;31884;52.538;13.820;2024-03-23T08:15:23;12.20;;;2.25;;
44842;SDS011;31884;52.538;13.820;2024-03-23T08:17:49;5.60;;;1.80;;
44842;SDS011;31884;52.538;13.820;2024-03-23T08:20:15;9.50;;;2.15;;
44842;SDS011;31884;52.538;13.820;2024-03-23T08:22:40;7.00;;;2.00;;
44842;SDS011;31884;52.538;13.820;2024-03-23T08:25:06;8.10;;;2.28;;
44842;SDS011;31884;52.538;13.820;2024-03-23T08:27:31;6.35;;;2.10;;
44842;SDS011;31884;52.538;13.820;2024-03-23T08:29:57;8.45;;;1.70;;
44842;SDS011;31884;52.538;13.820;2024-03-23T08:32:23;4.18;;;1.95;;
44842;SDS011;31884;52.538;13.820;2024-03-23T08:34:49;6.18;;;1.83;;
44842;SDS011;31884;52.538;13.820;2024-03-23T08:37:14;6.95;;;2.17;;
44842;SDS011;31884;52.538;13.820;2024-03-23T08:39:39;4.28;;;1.70;;
44842;SDS011;31884;52.538;13.820;2024-03-23T08:42:06;3.95;;;1.45;;
44842;SDS011;31884;52.538;13.820;2024-03-23T08:44:31;6.38;;;1.63;;
44842;SDS011;31884;52.538;13.820;2024-03-23T08:46:57;2.63;;;1.42;;
44842;SDS011;31884;52.538;13.820;2024-03-23T08:49:22;5.40;;;2.40;;
44842;SDS011;31884;52.538;13.820;2024-03-23T08:51:48;4.65;;;1.58;;
44842;SDS011;31884;52.538;13.820;2024-03-23T08:54:13;4.10;;;1.50;;
44842;SDS011;31884;52.538;13.820;2024-03-23T08:56:38;5.72;;;1.88;;
44842;SDS011;31884;52.538;13.820;2024-03-23T08:59:04;2.72;;;1.45;;
44842;SDS011;31884;52.538;13.820;2024-03-23T09:01:29;2.03;;;1.00;;
44842;SDS011;31884;52.538;13.820;2024-03-23T09:03:55;1.98;;;1.00;;
44842;SDS011;31884;52.538;13.820;2024-03-23T09:06:20;2.92;;;1.00;;
44842;SDS011;31884;52.538;13.820;2024-03-23T09:08:46;5.03;;;1.88;;
44842;SDS011;31884;52.538;13.820;2024-03-23T09:11:12;4.32;;;1.38;;
44842;SDS011;31884;52.538;13.820;2024-03-23T09:13:38;0.88;;;0.73;;
44842;SDS011;31884;52.538;13.820;2024-03-23T09:16:04;4.43;;;1.52;;
44842;SDS011;31884;52.538;13.820;2024-03-23T09:18:34;2.08;;;1.05;;
44842;SDS011;31884;52.538;13.820;2024-03-23T09:21:00;1.75;;;0.90;;
44842;SDS011;31884;52.538;13.820;2024-03-23T09:23:27;1.02;;;0.80;;
44842;SDS011;31884;52.538;13.820;2024-03-23T09:25:53;3.15;;;0.75;;
44842;SDS011;31884;52.538;13.820;2024-03-23T09:28:18;2.53;;;0.90;;
44842;SDS011;31884;52.538;13.820;2024-03-23T09:30:44;1.33;;;0.70;;
44842;SDS011;31884;52.538;13.820;2024-03-23T09:33:10;3.15;;;0.90;;
44842;SDS011;31884;52.538;13.820;2024-03-23T09:35:38;3.10;;;0.80;;
44842;SDS011;31884;52.538;13.820;2024-03-23T09:38:05;3.67;;;0.90;;
44842;SDS011;31884;52.538;13.820;2024-03-23T09:40:32;2.53;;;0.88;;
44842;SDS011;31884;52.538;13.820;2024-03-23T09:42:58;1.55;;;0.70;;
44842;SDS011;31884;52.538;13.820;2024-03-23T09:45:27;2.63;;;0.95;;
44842;SDS011;31884;52.538;13.820;2024-03-23T09:47:54;3.42;;;0.70;;
44842;SDS011;31884;52.538;13.820;2024-03-23T09:50:20;4.15;;;0.70;;
44842;SDS011;31884;52.538;13.820;2024-03-23T09:52:46;2.17;;;0.82;;
44842;SDS011;31884;52.538;13.820;2024-03-23T09:55:12;2.20;;;1.05;;
44842;SDS011;31884;52.538;13.820;2024-03-23T09:57:38;4.75;;;0.90;;
44842;SDS011;31884;52.538;13.820;2024-03-23T10:00:04;4.82;;;1.13;;
44842;SDS011;31884;52.538;13.820;2024-03-23T10:02:31;1.70;;;0.60;;
44842;SDS011;31884;52.538;13.820;2024-03-23T10:04:57;2.47;;;1.17;;
44842;SDS011;31884;52.538;13.820;2024-03-23T10:07:23;2.10;;;0.88;;
44842;SDS011;31884;52.538;13.820;2024-03-23T10:09:48;4.18;;;0.93;;
44842;SDS011;31884;52.538;13.820;2024-03-23T10:12:17;3.00;;;0.95;;
44842;SDS011;31884;52.538;13.820;2024-03-23T10:14:43;2.58;;;0.82;;
44842;SDS011;31884;52.538;13.820;2024-03-23T10:19:39;4.47;;;0.98;;
44842;SDS011;31884;52.538;13.820;2024-03-23T10:22:06;2.42;;;0.95;;
44842;SDS011;31884;52.538;13.820;2024-03-23T10:24:31;1.92;;;0.70;;
44842;SDS011;31884;52.538;13.820;2024-03-23T10:26:57;1.58;;;0.77;;
44842;SDS011;31884;52.538;13.820;2024-03-23T10:29:22;6.65;;;3.50;;
44842;SDS011;31884;52.538;13.820;2024-03-23T10:31:48;4.25;;;1.80;;
44842;SDS011;31884;52.538;13.820;2024-03-23T10:34:14;3.92;;;2.05;;
44842;SDS011;31884;52.538;13.820;2024-03-23T10:36:40;7.85;;;1.63;;
44842;SDS011;31884;52.538;13.820;2024-03-23T10:39:06;5.68;;;1.35;;
44842;SDS011;31884;52.538;13.820;2024-03-23T10:41:32;3.15;;;1.27;;
44842;SDS011;31884;52.538;13.820;2024-03-23T10:43:58;7.22;;;1.52;;
44842;SDS011;31884;52.538;13.820;2024-03-23T10:46:24;3.70;;;1.75;;
44842;SDS011;31884;52.538;13.820;2024-03-23T10:48:50;3.28;;;1.33;;
44842;SDS011;31884;52.538;13.820;2024-03-23T10:51:16;4.72;;;1.77;;
44842;SDS011;31884;52.538;13.820;2024-03-23T10:53:41;4.97;;;1.50;;
44842;SDS011;31884;52.538;13.820;2024-03-23T10:56:07;2.85;;;1.33;;
44842;SDS011;31884;52.538;13.820;2024-03-23T10:58:38;6.50;;;2.20;;
44842;SDS011;31884;52.538;13.820;2024-03-23T11:01:06;5.10;;;1.85;;
44842;SDS011;31884;52.538;13.820;2024-03-23T11:03:35;2.92;;;1.15;;
44842;SDS011;31884;52.538;13.820;2024-03-23T11:06:02;4.30;;;1.20;;
44842;SDS011;31884;52.538;13.820;2024-03-23T11:11:22;6.72;;;1.63;;
44842;SDS011;31884;52.538;13.820;2024-03-23T11:13:53;1.83;;;1.10;;
44842;SDS011;31884;52.538;13.820;2024-03-23T11:16:26;2.85;;;1.08;;
44842;SDS011;31884;52.538;13.820;2024-03-23T11:18:54;4.03;;;1.23;;
44842;SDS011;31884;52.538;13.820;2024-03-23T11:21:58;3.08;;;0.90;;
44842;SDS011;31884;52.538;13.820;2024-03-23T11:24:24;2.30;;;0.95;;
44842;SDS011;31884;52.538;13.820;2024-03-23T11:26:49;6.15;;;1.17;;
44842;SDS011;31884;52.538;13.820;2024-03-23T11:29:15;2.17;;;1.27;;
44842;SDS011;31884;52.538;13.820;2024-03-23T11:31:48;4.15;;;1.20;;
44842;SDS011;31884;52.538;13.820;2024-03-23T11:34:17;2.08;;;1.40;;
44842;SDS011;31884;52.538;13.820;2024-03-23T11:36:44;4.72;;;1.00;;
44842;SDS011;31884;52.538;13.820;2024-03-23T11:39:16;2.97;;;1.02;;
44842;SDS011;31884;52.538;13.820;2024-03-23T11:44:20;3.70;;;1.00;;
44842;SDS011;31884;52.538;13.820;2024-03-23T11:46:50;4.40;;;1.20;;
44842;SDS011;31884;52.538;13.820;2024-03-23T11:49:21;5.07;;;1.45;;
44842;SDS011;31884;52.538;13.820;2024-03-23T11:51:49;2.05;;;0.90;;
44842;SDS011;31884;52.538;13.820;2024-03-23T11:54:15;2.40;;;0.88;;
44842;SDS011;31884;52.538;13.820;2024-03-23T11:56:41;4.47;;;0.88;;
44842;SDS011;31884;52.538;13.820;2024-03-23T11:59:35;3.80;;;1.00;;
44842;SDS011;31884;52.538;13.820;2024-03-23T12:02:12;4.78;;;0.80;;
44842;SDS011;31884;52.538;13.820;2024-03-23T12:04:39;4.30;;;1.23;;
44842;SDS011;31884;52.538;13.820;2024-03-23T12:07:21;6.75;;;1.50;;
44842;SDS011;31884;52.538;13.820;2024-03-23T12:09:47;5.63;;;2.35;;
44842;SDS011;31884;52.538;13.820;2024-03-23T12:12:27;7.68;;;2.00;;
44842;SDS011;31884;52.538;13.820;2024-03-23T12:15:06;7.05;;;2.80;;
44842;SDS011;31884;52.538;13.820;2024-03-23T12:17:33;6.03;;;2.95;;
44842;SDS011;31884;52.538;13.820;2024-03-23T12:19:59;7.22;;;2.22;;
44842;SDS011;31884;52.538;13.820;2024-03-23T12:22:26;4.07;;;2.17;;
44842;SDS011;31884;52.538;13.820;2024-03-23T12:24:52;7.18;;;2.45;;
44842;SDS011;31884;52.538;13.820;2024-03-23T12:27:17;7.05;;;2.05;;
44842;SDS011;31884;52.538;13.820;2024-03-23T12:29:43;4.72;;;1.83;;
44842;SDS011;31884;52.538;13.820;2024-03-23T12:32:10;11.07;;;1.95;;
44842;SDS011;31884;52.538;13.820;2024-03-23T12:34:37;6.90;;;2.00;;
44842;SDS011;31884;52.538;13.820;2024-03-23T12:37:02;6.03;;;1.83;;
44842;SDS011;31884;52.538;13.820;2024-03-23T12:39:28;4.70;;;1.38;;
44842;SDS011;31884;52.538;13.820;2024-03-23T12:41:53;2.75;;;1.70;;
44842;SDS011;31884;52.538;13.820;2024-03-23T12:44:19;6.10;;;1.63;;
44842;SDS011;31884;52.538;13.820;2024-03-23T12:46:45;8.65;;;2.25;;
44842;SDS011;31884;52.538;13.820;2024-03-23T12:49:10;6.70;;;1.95;;
44842;SDS011;31884;52.538;13.820;2024-03-23T12:51:36;6.03;;;1.67;;
44842;SDS011;31884;52.538;13.820;2024-03-23T12:54:02;6.97;;;1.98;;
44842;SDS011;31884;52.538;13.820;2024-03-23T12:56:28;12.95;;;2.47;;
44842;SDS011;31884;52.538;13.820;2024-03-23T12:58:54;7.20;;;2.55;;
44842;SDS011;31884;52.538;13.820;2024-03-23T13:01:21;10.52;;;2.20;;
44842;SDS011;31884;52.538;13.820;2024-03-23T13:03:50;6.75;;;2.17;;
44842;SDS011;31884;52.538;13.820;2024-03-23T13:06:16;5.13;;;2.08;;
44842;SDS011;31884;52.538;13.820;2024-03-23T13:08:46;7.47;;;1.70;;
44842;SDS011;31884;52.538;13.820;2024-03-23T13:11:12;5.18;;;1.70;;
44842;SDS011;31884;52.538;13.820;2024-03-23T13:13:38;4.90;;;2.00;;
44842;SDS011;31884;52.538;13.820;2024-03-23T13:16:04;4.95;;;1.88;;
44842;SDS011;31884;52.538;13.820;2024-03-23T13:18:30;7.80;;;2.20;;
44842;SDS011;31884;52.538;13.820;2024-03-23T13:20:57;6.72;;;2.08;;
44842;SDS011;31884;52.538;13.820;2024-03-23T13:23:22;9.85;;;2.83;;
44842;SDS011;31884;52.538;13.820;2024-03-23T13:25:51;6.95;;;2.47;;
44842;SDS011;31884;52.538;13.820;2024-03-23T13:28:18;6.78;;;2.28;;
44842;SDS011;31884;52.538;13.820;2024-03-23T13:30:53;8.13;;;2.40;;
44842;SDS011;31884;52.538;13.820;2024-03-23T13:35:52;8.53;;;1.97;;
44842;SDS011;31884;52.538;13.820;2024-03-23T13:38:18;9.60;;;1.98;;
44842;SDS011;31884;52.538;13.820;2024-03-23T13:43:20;6.97;;;1.75;;
44842;SDS011;31884;52.538;13.820;2024-03-23T13:45:49;4.20;;;1.85;;
44842;SDS011;31884;52.538;13.820;2024-03-23T13:48:18;6.18;;;2.28;;
44842;SDS011;31884;52.538;13.820;2024-03-23T13:50:45;3.95;;;1.60;;
44842;SDS011;31884;52.538;13.820;2024-03-23T13:53:13;9.18;;;2.17;;
44842;SDS011;31884;52.538;13.820;2024-03-23T13:55:45;6.18;;;1.42;;
44842;SDS011;31884;52.538;13.820;2024-03-23T13:58:13;7.05;;;1.75;;
44842;SDS011;31884;52.538;13.820;2024-03-23T14:00:38;5.45;;;1.90;;
44842;SDS011;31884;52.538;13.820;2024-03-23T14:03:04;9.30;;;2.30;;
44842;SDS011;31884;52.538;13.820;2024-03-23T14:05:30;6.53;;;1.60;;
44842;SDS011;31884;52.538;13.820;2024-03-23T14:07:56;7.13;;;1.80;;
44842;SDS011;31884;52.538;13.820;2024-03-23T14:10:21;7.57;;;1.85;;
44842;SDS011;31884;52.538;13.820;2024-03-23T14:12:47;11.55;;;2.50;;
44842;SDS011;31884;52.538;13.820;2024-03-23T14:15:12;7.07;;;2.25;;
44842;SDS011;31884;52.538;13.820;2024-03-23T14:17:38;6.13;;;2.10;;
44842;SDS011;31884;52.538;13.820;2024-03-23T14:20:04;7.22;;;1.73;;
44842;SDS011;31884;52.538;13.820;2024-03-23T14:22:30;9.18;;;1.88;;
44842;SDS011;31884;52.538;13.820;2024-03-23T14:24:56;6.40;;;1.60;;
44842;SDS011;31884;52.538;13.820;2024-03-23T14:27:21;5.90;;;2.25;;
44842;SDS011;31884;52.538;13.820;2024-03-23T14:29:47;6.35;;;1.98;;
44842;SDS011;31884;52.538;13.820;2024-03-23T14:32:13;10.40;;;2.83;;
44842;SDS011;31884;52.538;13.820;2024-03-23T14:34:39;6.60;;;2.60;;
44842;SDS011;31884;52.538;13.820;2024-03-23T14:37:05;6.50;;;2.95;;
44842;SDS011;31884;52.538;13.820;2024-03-23T14:39:31;8.70;;;1.85;;
44842;SDS011;31884;52.538;13.820;2024-03-23T14:41:59;11.73;;;1.88;;
44842;SDS011;31884;52.538;13.820;2024-03-23T14:44:27;7.28;;;1.88;;
44842;SDS011;31884;52.538;13.820;2024-03-23T14:46:53;7.70;;;1.90;;
44842;SDS011;31884;52.538;13.820;2024-03-23T14:49:20;7.88;;;2.40;;
44842;SDS011;31884;52.538;13.820;2024-03-23T14:51:45;5.40;;;1.70;;
44842;SDS011;31884;52.538;13.820;2024-03-23T14:54:11;8.52;;;2.67;;
44842;SDS011;31884;52.538;13.820;2024-03-23T14:56:38;9.70;;;3.13;;
44842;SDS011;31884;52.538;13.820;2024-03-23T14:59:03;8.77;;;2.15;;
44842;SDS011;31884;52.538;13.820;2024-03-23T15:01:29;10.85;;;2.45;;
44842;SDS011;31884;52.538;13.820;2024-03-23T15:03:54;6.53;;;1.92;;
44842;SDS011;31884;52.538;13.820;2024-03-23T15:06:20;4.88;;;1.40;;
44842;SDS011;31884;52.538;13.820;2024-03-23T15:08:46;4.60;;;1.67;;
44842;SDS011;31884;52.538;13.820;2024-03-23T15:11:11;3.10;;;1.98;;
44842;SDS011;31884;52.538;13.820;2024-03-23T15:13:37;6.88;;;1.73;;
44842;SDS011;31884;52.538;13.820;2024-03-23T15:16:03;3.35;;;1.60;;
44842;SDS011;31884;52.538;13.820;2024-03-23T15:18:30;3.53;;;2.10;;
44842;SDS011;31884;52.538;13.820;2024-03-23T15:21:01;4.07;;;1.98;;
44842;SDS011;31884;52.538;13.820;2024-03-23T15:23:27;6.15;;;2.47;;
44842;SDS011;31884;52.538;13.820;2024-03-23T15:26:02;2.85;;;2.05;;
44842;SDS011;31884;52.538;13.820;2024-03-23T15:28:30;2.22;;;1.60;;
44842;SDS011;31884;52.538;13.820;2024-03-23T15:31:15;4.53;;;1.50;;
44842;SDS011;31884;52.538;13.820;2024-03-23T15:33:40;1.67;;;1.23;;
44842;SDS011;31884;52.538;13.820;2024-03-23T15:36:06;2.90;;;1.17;;
44842;SDS011;31884;52.538;13.820;2024-03-23T15:38:32;3.00;;;1.17;;